Terminal Aerodrome Forecast
Issued by NWS Nashville, TN

Home | Current Version | Previous Version | Text Only | Print | Product List | Glossary On
Versions: 1 2 3 4 5 6 7 8 9 10 11 12 13 14 15 16 17 18 19 20 21 22 23 24 25 26 27 28 29 30 31
000
FTUS44 KOHX 242300
TAFCSV
TAF
KCSV 242322Z 2500/2524 36005KT P6SM SCT250
     FM250700 00000KT 2SM BR SCT250
      TEMPO 2509/2512 1/2SM FG SCT003
     FM251330 04005KT P6SM SCT250=

USA.gov is the U.S. government's official web portal to all federal, state and local government web resources and services.